Time;durP1;ratioP1;P1;durP2;ratioP2;P2;SDS_P1;SDS_P2;PMS_P1;PMS_P2;Temp;Humidity;BMP_temperature;BMP_pressure;BME280_temperature;BME280_humidity;BME280_pressure;Samples;Min_cycle;Max_cycle;Signal;HPM_P1;HPM_P2
2021/11/19 00:00:40;;;;;;;26.57;16.53;;;10.60;99.90;;;;;;5016419;28;20509;-36
2021/11/19 00:03:06;;;;;;;25.10;16.90;;;10.50;99.90;;;;;;5023523;28;20420;-36
2021/11/19 00:05:32;;;;;;;20.67;16.33;;;10.50;99.90;;;;;;5019148;28;20430;-36
2021/11/19 00:07:58;;;;;;;24.60;16.77;;;10.50;99.90;;;;;;5014366;28;21027;-36
2021/11/19 00:10:25;;;;;;;22.80;15.60;;;10.60;99.90;;;;;;5008160;28;20436;-36
2021/11/19 00:12:51;;;;;;;28.17;16.73;;;10.70;99.90;;;;;;5013631;28;20511;-35
2021/11/19 00:15:16;;;;;;;22.93;15.13;;;10.80;99.90;;;;;;5022317;28;20429;-36
2021/11/19 00:17:43;;;;;;;20.80;15.17;;;10.90;99.90;;;;;;5026747;28;20563;-36
2021/11/19 00:20:12;;;;;;;26.53;14.80;;;10.70;99.90;;;;;;5008141;28;20249;-36
2021/11/19 00:22:38;;;;;;;23.27;16.70;;;10.60;99.90;;;;;;5012746;28;20421;-36
2021/11/19 00:25:06;;;;;;;22.03;16.47;;;10.80;99.90;;;;;;5007173;28;20460;-36
2021/11/19 00:27:32;;;;;;;23.60;16.07;;;10.60;99.90;;;;;;5009993;28;20512;-36
2021/11/19 00:29:58;;;;;;;25.07;15.63;;;10.80;99.90;;;;;;5018710;28;20552;-36
2021/11/19 00:32:24;;;;;;;20.90;16.03;;;10.70;99.90;;;;;;5022121;28;20838;-36
2021/11/19 00:34:50;;;;;;;22.50;15.97;;;10.70;99.90;;;;;;5007753;28;20449;-36
2021/11/19 00:37:18;;;;;;;23.93;15.93;;;10.60;99.90;;;;;;5020132;28;20465;-36
2021/11/19 00:39:44;;;;;;;23.80;16.37;;;10.60;99.90;;;;;;5008176;28;20425;-36
2021/11/19 00:42:10;;;;;;;23.40;17.27;;;10.40;99.90;;;;;;5007856;28;20813;-36
2021/11/19 00:44:36;;;;;;;25.80;17.20;;;10.50;99.90;;;;;;5018582;28;20521;-36
2021/11/19 00:47:03;;;;;;;30.10;18.30;;;10.50;99.90;;;;;;5021236;28;20529;-36
2021/11/19 00:49:32;;;;;;;25.57;16.30;;;10.50;99.90;;;;;;5008106;28;20509;-36
2021/11/19 00:51:59;;;;;;;22.13;16.07;;;10.50;99.90;;;;;;5016698;28;20417;-36
2021/11/19 00:54:26;;;;;;;18.67;15.27;;;10.70;99.90;;;;;;5007151;28;20421;-36
2021/11/19 00:56:56;;;;;;;18.70;14.87;;;10.60;99.90;;;;;;5007490;28;20465;-36
2021/11/19 00:59:23;;;;;;;21.50;13.80;;;10.80;99.90;;;;;;5016294;28;20441;-36
2021/11/19 01:01:57;;;;;;;19.40;14.20;;;10.60;99.90;;;;;;5018746;28;20475;-37
2021/11/19 01:04:25;;;;;;;18.87;13.17;;;10.70;99.90;;;;;;5007143;28;20461;-36
2021/11/19 01:06:51;;;;;;;16.70;13.83;;;10.50;99.90;;;;;;5012780;28;20475;-36
2021/11/19 01:09:22;;;;;;;16.90;13.70;;;10.50;99.90;;;;;;5007324;28;20436;-36
2021/11/19 01:11:48;;;;;;;19.37;13.87;;;10.60;99.90;;;;;;5007144;28;20438;-36
2021/11/19 01:14:24;;;;;;;18.00;13.43;;;10.50;99.90;;;;;;5011797;28;20451;-36
2021/11/19 01:17:00;;;;;;;23.10;15.20;;;10.60;99.90;;;;;;5022391;28;20490;-36
2021/11/19 01:19:34;;;;;;;19.90;14.60;;;10.50;99.90;;;;;;5012000;28;20430;-36
2021/11/19 01:22:08;;;;;;;18.63;14.47;;;10.60;99.90;;;;;;5007388;28;20418;-36
2021/11/19 01:24:34;;;;;;;20.70;14.53;;;10.60;99.90;;;;;;5006767;28;20495;-36
2021/11/19 01:27:00;;;;;;;21.57;15.57;;;10.50;99.90;;;;;;5007179;28;20618;-36
2021/11/19 01:29:26;;;;;;;21.77;15.80;;;10.80;99.90;;;;;;5009734;28;20437;-36
2021/11/19 01:31:58;;;;;;;22.13;16.20;;;10.80;99.90;;;;;;5009523;28;20524;-36
2021/11/19 01:34:26;;;;;;;21.90;17.10;;;10.50;99.90;;;;;;5021354;28;20671;-36
2021/11/19 01:36:53;;;;;;;26.33;16.33;;;10.70;99.90;;;;;;5026459;28;20453;-36
2021/11/19 01:39:22;;;;;;;25.63;18.20;;;10.50;99.90;;;;;;5010821;28;20433;-36
2021/11/19 01:41:55;;;;;;;22.80;16.87;;;10.40;99.90;;;;;;5007241;28;20418;-36
2021/11/19 01:44:29;;;;;;;31.00;18.27;;;10.50;99.90;;;;;;5018244;28;20432;-36
2021/11/19 01:46:57;;;;;;;27.13;18.30;;;10.30;99.90;;;;;;5019683;28;20416;-36
2021/11/19 01:49:25;;;;;;;22.80;17.77;;;10.40;99.90;;;;;;5019607;28;20430;-36
2021/11/19 01:51:59;;;;;;;27.17;18.60;;;10.40;99.90;;;;;;5012173;28;20986;-36
2021/11/19 01:54:42;;;;;;;24.43;18.00;;;10.20;99.90;;;;;;5006508;28;20426;-36
2021/11/19 01:57:17;;;;;;;26.97;19.13;;;10.50;99.90;;;;;;5006957;28;20481;-36
2021/11/19 01:59:50;;;;;;;28.03;18.40;;;10.30;99.90;;;;;;5012619;28;20468;-36
2021/11/19 02:02:20;;;;;;;27.73;20.63;;;10.30;99.90;;;;;;5024937;28;20950;-36
2021/11/19 02:04:51;;;;;;;25.10;18.60;;;10.30;99.90;;;;;;5006318;28;20465;-36
2021/11/19 02:07:28;;;;;;;37.13;19.97;;;10.50;99.90;;;;;;5007333;28;20418;-36
2021/11/19 02:10:06;;;;;;;28.60;19.27;;;10.30;99.90;;;;;;5006923;28;20453;-36
2021/11/19 02:12:54;;;;;;;25.80;18.17;;;10.40;99.90;;;;;;5006801;28;20426;-36
2021/11/19 02:15:25;;;;;;;28.60;19.00;;;10.40;99.90;;;;;;5011704;28;20432;-36
2021/11/19 02:17:57;;;;;;;24.97;19.20;;;10.30;99.90;;;;;;5016270;28;20453;-36
2021/11/19 02:20:38;;;;;;;31.17;18.67;;;10.30;99.90;;;;;;5005165;28;20920;-36
2021/11/19 02:23:31;;;;;;;27.93;20.13;;;10.40;99.90;;;;;;5015985;28;20774;-36
2021/11/19 02:26:07;;;;;;;26.20;18.13;;;10.30;99.90;;;;;;5007060;28;20562;-36
2021/11/19 02:28:35;;;;;;;31.40;19.43;;;10.40;99.90;;;;;;5013553;28;20432;-36
2021/11/19 02:31:18;;;;;;;29.03;20.33;;;10.40;99.90;;;;;;5016526;28;20782;-36
2021/11/19 02:33:47;;;;;;;29.13;19.07;;;10.40;99.90;;;;;;5011547;28;20798;-36
2021/11/19 02:36:16;;;;;;;29.87;20.20;;;10.40;99.90;;;;;;5006499;28;20433;-36
2021/11/19 02:38:57;;;;;;;36.37;21.23;;;10.30;99.90;;;;;;5012015;28;20425;-36
2021/11/19 02:41:29;;;;;;;29.23;19.17;;;10.10;99.90;;;;;;5008576;28;20802;-36
2021/11/19 02:44:02;;;;;;;30.67;21.20;;;10.10;99.90;;;;;;5014412;28;20432;-36
2021/11/19 02:46:33;;;;;;;27.73;19.13;;;10.10;99.90;;;;;;5027227;28;20424;-36
2021/11/19 02:48:59;;;;;;;29.17;19.30;;;10.30;99.90;;;;;;5017100;28;20457;-36
2021/11/19 02:51:26;;;;;;;28.97;19.77;;;10.20;99.90;;;;;;5009830;28;20454;-36
2021/11/19 02:53:53;;;;;;;27.57;20.07;;;10.10;99.90;;;;;;5010785;28;20579;-36
2021/11/19 02:56:20;;;;;;;29.90;20.20;;;10.20;99.90;;;;;;5010080;28;20572;-36
2021/11/19 02:59:00;;;;;;;24.07;17.90;;;10.30;99.90;;;;;;5011233;28;20499;-36
2021/11/19 03:01:38;;;;;;;26.40;19.10;;;10.50;99.90;;;;;;5020329;28;20845;-36
2021/11/19 03:04:03;;;;;;;26.87;19.33;;;10.30;99.90;;;;;;5016656;28;20418;-36
2021/11/19 03:06:32;;;;;;;29.73;19.87;;;10.30;99.90;;;;;;5009667;28;20791;-36
2021/11/19 03:08:58;;;;;;;28.83;19.60;;;10.40;99.90;;;;;;5019971;28;20659;-36
2021/11/19 03:11:25;;;;;;;25.30;18.17;;;10.30;99.90;;;;;;5009911;28;20537;-36
2021/11/19 03:13:51;;;;;;;24.80;18.97;;;10.30;99.90;;;;;;5010201;28;20444;-37
2021/11/19 03:16:17;;;;;;;30.80;19.20;;;10.30;99.90;;;;;;5021343;28;20460;-36
2021/11/19 03:18:44;;;;;;;28.13;19.70;;;10.30;99.90;;;;;;5016289;28;20836;-36
2021/11/19 03:21:16;;;;;;;25.57;17.77;;;10.30;99.90;;;;;;5008134;28;20427;-36
2021/11/19 03:23:43;;;;;;;26.50;20.60;;;10.40;99.90;;;;;;5014716;28;20426;-36
2021/11/19 03:26:10;;;;;;;26.40;18.20;;;10.20;99.90;;;;;;5009504;28;20422;-36
2021/11/19 03:28:36;;;;;;;24.97;19.63;;;10.20;99.90;;;;;;5007923;28;20430;-36
2021/11/19 03:31:06;;;;;;;28.60;19.27;;;10.30;99.90;;;;;;5020750;28;20891;-36
2021/11/19 03:33:34;;;;;;;21.83;16.90;;;10.30;99.90;;;;;;5020749;28;20440;-36
2021/11/19 03:35:59;;;;;;;21.93;16.77;;;10.40;99.90;;;;;;5013792;28;20460;-36
2021/11/19 03:38:28;;;;;;;26.57;17.83;;;10.30;99.90;;;;;;5011473;28;20469;-36
2021/11/19 03:40:56;;;;;;;21.13;15.43;;;10.40;99.90;;;;;;5009202;28;20430;-36
2021/11/19 03:43:34;;;;;;;26.70;18.77;;;10.40;99.90;;;;;;5008288;28;20430;-36
2021/11/19 03:46:06;;;;;;;22.33;17.07;;;10.50;99.90;;;;;;5016278;28;20430;-36
2021/11/19 03:48:31;;;;;;;27.77;18.80;;;10.30;99.90;;;;;;5017688;28;20417;-36
2021/11/19 03:51:14;;;;;;;21.80;17.40;;;10.40;99.90;;;;;;5009187;28;20460;-36
2021/11/19 03:53:40;;;;;;;24.27;17.37;;;10.30;99.90;;;;;;5018824;28;20194;-36
2021/11/19 03:56:06;;;;;;;25.17;17.70;;;10.40;99.90;;;;;;5008747;28;20492;-36
2021/11/19 03:58:35;;;;;;;22.23;16.23;;;10.30;99.90;;;;;;5008557;28;20199;-36
2021/11/19 04:01:13;;;;;;;24.27;17.00;;;10.40;99.90;;;;;;5017802;28;20439;-36
2021/11/19 04:03:39;;;;;;;23.80;17.17;;;10.40;99.90;;;;;;5018694;28;20979;-36
2021/11/19 04:06:05;;;;;;;26.33;17.37;;;10.30;99.90;;;;;;5008558;28;20418;-36
2021/11/19 04:08:31;;;;;;;25.10;17.53;;;10.40;99.90;;;;;;5015853;28;20441;-36
2021/11/19 04:10:57;;;;;;;24.13;18.10;;;10.20;99.90;;;;;;5008338;28;20445;-36
2021/11/19 04:13:23;;;;;;;23.37;17.80;;;10.30;99.90;;;;;;5007815;28;20430;-36
2021/11/19 04:15:53;;;;;;;25.50;17.93;;;10.30;99.90;;;;;;5017400;28;20824;-36
2021/11/19 04:18:19;;;;;;;27.97;19.10;;;10.20;99.90;;;;;;5018056;28;20464;-36
2021/11/19 04:20:47;;;;;;;28.83;18.00;;;10.30;99.90;;;;;;5017484;28;20422;-35
2021/11/19 04:23:14;;;;;;;24.33;17.13;;;10.20;99.90;;;;;;5010018;28;20426;-36
2021/11/19 04:25:41;;;;;;;27.10;18.60;;;10.20;99.90;;;;;;5008164;28;20430;-36
2021/11/19 04:28:07;;;;;;;25.33;17.00;;;10.20;99.90;;;;;;5008299;28;20433;-36
2021/11/19 04:30:36;;;;;;;23.67;17.33;;;10.20;99.90;;;;;;5016794;28;20469;-36
2021/11/19 04:33:02;;;;;;;24.60;17.17;;;10.40;99.90;;;;;;5021612;28;20816;-35
2021/11/19 04:35:30;;;;;;;23.47;17.10;;;10.20;99.90;;;;;;5009493;28;20427;-36
2021/11/19 04:37:57;;;;;;;25.00;16.77;;;10.10;99.90;;;;;;5011756;28;20815;-36
2021/11/19 04:40:24;;;;;;;24.80;16.40;;;10.20;99.90;;;;;;5015907;28;20758;-36
2021/11/19 04:42:50;;;;;;;24.20;16.77;;;10.20;99.90;;;;;;5007409;28;20461;-36
2021/11/19 04:45:21;;;;;;;28.27;18.00;;;10.30;99.90;;;;;;5017686;28;20448;-36
2021/11/19 04:47:48;;;;;;;24.47;17.70;;;10.30;99.90;;;;;;5019823;28;20433;-36
2021/11/19 04:50:16;;;;;;;21.37;15.47;;;10.30;99.90;;;;;;5010708;28;20438;-36
2021/11/19 04:52:42;;;;;;;24.80;17.80;;;10.60;99.90;;;;;;5009089;28;21016;-36
2021/11/19 04:55:09;;;;;;;21.47;15.80;;;10.40;99.90;;;;;;5015363;28;20426;-36
2021/11/19 04:57:36;;;;;;;20.40;15.60;;;10.30;99.90;;;;;;5007680;28;20524;-36
2021/11/19 05:00:03;;;;;;;22.43;16.47;;;10.30;99.90;;;;;;5014459;28;20469;-36
2021/11/19 05:02:29;;;;;;;21.30;14.90;;;10.40;99.90;;;;;;5016636;28;20426;-36
2021/11/19 05:04:54;;;;;;;22.93;16.30;;;10.40;99.90;;;;;;5012580;28;20802;-36
2021/11/19 05:07:21;;;;;;;20.20;15.10;;;10.50;99.90;;;;;;5007716;28;20222;-36
2021/11/19 05:09:47;;;;;;;21.43;16.53;;;10.50;99.90;;;;;;5012419;28;20202;-36
2021/11/19 05:12:20;;;;;;;22.77;16.00;;;10.40;99.90;;;;;;5008045;28;20925;-36
2021/11/19 05:14:49;;;;;;;20.80;15.53;;;10.30;99.90;;;;;;5009952;28;20269;-36
2021/11/19 05:17:15;;;;;;;23.83;16.60;;;10.30;99.90;;;;;;5026956;28;20469;-36
2021/11/19 05:19:41;;;;;;;22.23;17.00;;;10.40;99.90;;;;;;5020233;28;20444;-36
2021/11/19 05:22:07;;;;;;;24.13;15.00;;;10.20;99.90;;;;;;5007918;28;20434;-36
2021/11/19 05:24:33;;;;;;;20.17;15.67;;;10.30;99.90;;;;;;5007376;28;20297;-36
2021/11/19 05:26:59;;;;;;;20.50;15.10;;;10.30;99.90;;;;;;5007646;28;20440;-35
2021/11/19 05:29:25;;;;;;;20.43;15.40;;;10.50;99.90;;;;;;5006942;28;20426;-36
2021/11/19 05:31:52;;;;;;;20.07;15.10;;;10.50;99.90;;;;;;5014378;28;20187;-36
2021/11/19 05:34:17;;;;;;;19.83;14.60;;;10.30;99.90;;;;;;5020165;28;20541;-36
2021/11/19 05:36:44;;;;;;;21.63;14.73;;;10.40;99.90;;;;;;5007530;28;20472;-36
2021/11/19 05:39:10;;;;;;;19.67;14.93;;;10.30;99.90;;;;;;5017626;28;20603;-35
2021/11/19 05:41:37;;;;;;;17.03;13.07;;;10.40;99.90;;;;;;5007359;28;20469;-36
2021/11/19 05:44:03;;;;;;;17.97;14.37;;;10.40;99.90;;;;;;5011563;28;20495;-36
2021/11/19 05:46:31;;;;;;;19.67;13.93;;;10.50;99.90;;;;;;5020116;28;20472;-36
2021/11/19 05:48:58;;;;;;;17.27;14.37;;;10.60;99.90;;;;;;5022904;28;20487;-36
2021/11/19 05:51:27;;;;;;;18.00;13.47;;;10.50;99.90;;;;;;5007267;28;20425;-36
2021/11/19 05:53:53;;;;;;;17.03;13.50;;;10.40;99.90;;;;;;5012786;28;20496;-36
2021/11/19 05:56:20;;;;;;;21.53;16.53;;;10.40;99.90;;;;;;5017119;28;20454;-36
2021/11/19 05:58:46;;;;;;;19.93;15.87;;;10.30;99.90;;;;;;5007103;28;20433;-36
2021/11/19 06:01:17;;;;;;;22.43;16.67;;;10.30;99.90;;;;;;5016146;28;20809;-36
2021/11/19 06:03:45;;;;;;;22.87;15.93;;;10.30;99.90;;;;;;5014249;28;20225;-36
2021/11/19 06:06:12;;;;;;;22.33;15.40;;;10.30;99.90;;;;;;5015468;28;20429;-36
2021/11/19 06:08:39;;;;;;;24.20;16.77;;;10.30;99.90;;;;;;5011293;28;20429;-36
2021/11/19 06:11:16;;;;;;;18.70;14.70;;;10.30;99.90;;;;;;5019122;28;20514;-36
2021/11/19 06:13:53;;;;;;;21.93;15.83;;;10.30;99.90;;;;;;5022609;28;20509;-36
2021/11/19 06:16:23;;;;;;;21.13;16.83;;;10.30;99.90;;;;;;5021365;28;20801;-36
2021/11/19 06:18:54;;;;;;;19.80;15.07;;;10.30;99.90;;;;;;5012506;28;20426;-36
2021/11/19 06:21:37;;;;;;;25.50;18.03;;;10.30;99.90;;;;;;5022050;28;20924;-36
2021/11/19 06:24:08;;;;;;;22.43;16.30;;;10.40;99.90;;;;;;5024406;28;20471;-36
2021/11/19 06:26:35;;;;;;;24.60;17.87;;;10.30;99.90;;;;;;5011078;28;20426;-36
2021/11/19 06:29:04;;;;;;;23.57;17.00;;;10.40;99.90;;;;;;5010570;28;20531;-36
2021/11/19 06:31:32;;;;;;;24.40;17.60;;;10.40;99.90;;;;;;5022008;28;20788;-36
2021/11/19 06:33:58;;;;;;;24.37;17.80;;;10.30;99.90;;;;;;5023774;28;20443;-36
2021/11/19 06:36:24;;;;;;;21.87;16.20;;;10.40;99.90;;;;;;5022919;28;20433;-35
2021/11/19 06:38:51;;;;;;;22.93;16.40;;;10.50;99.90;;;;;;5019496;28;20422;-36
2021/11/19 06:41:18;;;;;;;22.70;16.33;;;10.40;99.90;;;;;;5010450;28;20191;-36
2021/11/19 06:43:44;;;;;;;22.20;16.80;;;10.40;99.90;;;;;;5009828;28;20436;-36
2021/11/19 06:46:12;;;;;;;23.33;17.07;;;10.30;99.90;;;;;;5025960;28;20433;-36
2021/11/19 06:48:38;;;;;;;24.07;16.70;;;10.30;99.90;;;;;;5025941;28;20429;-36
2021/11/19 06:51:04;;;;;;;28.40;18.13;;;10.40;99.90;;;;;;5019428;28;20434;-36
2021/11/19 06:53:32;;;;;;;23.50;16.03;;;10.40;99.90;;;;;;5009584;28;20422;-36
2021/11/19 06:55:58;;;;;;;26.60;17.30;;;10.40;99.90;;;;;;5010350;28;20437;-36
2021/11/19 06:58:26;;;;;;;23.30;16.40;;;10.40;99.90;;;;;;5010015;28;20472;-36
2021/11/19 07:00:53;;;;;;;22.97;15.57;;;10.30;99.90;;;;;;5013730;28;20429;-36
2021/11/19 07:03:19;;;;;;;28.53;16.90;;;10.50;99.90;;;;;;5019128;28;20520;-36
2021/11/19 07:05:45;;;;;;;21.53;15.90;;;10.60;99.90;;;;;;5014001;28;20526;-36
2021/11/19 07:08:11;;;;;;;23.50;16.70;;;10.50;99.90;;;;;;5007838;28;20436;-36
2021/11/19 07:10:41;;;;;;;20.30;15.23;;;10.50;99.90;;;;;;5016172;28;20195;-36
2021/11/19 07:13:08;;;;;;;22.90;16.90;;;10.40;99.90;;;;;;5023991;28;20425;-36
2021/11/19 07:15:34;;;;;;;22.77;16.50;;;10.40;99.90;;;;;;5024619;28;20738;-36
2021/11/19 07:18:00;;;;;;;22.90;16.67;;;10.40;99.90;;;;;;5033380;28;20815;-36
2021/11/19 07:20:28;;;;;;;22.87;15.77;;;10.60;99.90;;;;;;5031033;28;20453;-36
2021/11/19 07:22:56;;;;;;;22.83;16.30;;;10.60;99.90;;;;;;5022438;28;20190;-36
2021/11/19 07:25:24;;;;;;;21.00;15.97;;;10.40;99.90;;;;;;5021068;28;20468;-36
2021/11/19 07:27:54;;;;;;;23.33;16.50;;;10.40;99.90;;;;;;5020175;28;20433;-36
2021/11/19 07:30:24;;;;;;;22.77;18.20;;;10.40;99.90;;;;;;5019679;28;20437;-36
2021/11/19 07:32:50;;;;;;;25.70;18.17;;;10.50;99.90;;;;;;5023343;28;20434;-36
2021/11/19 07:35:16;;;;;;;21.30;15.67;;;10.50;99.90;;;;;;5024438;28;20429;-36
2021/11/19 07:37:42;;;;;;;25.33;16.90;;;10.50;99.90;;;;;;5036987;28;20573;-36
2021/11/19 07:40:10;;;;;;;21.87;16.97;;;10.60;99.90;;;;;;5029358;28;20512;-36
2021/11/19 07:42:36;;;;;;;22.17;16.17;;;10.40;99.90;;;;;;5011793;28;20603;-36
2021/11/19 07:45:04;;;;;;;25.20;17.53;;;10.50;99.90;;;;;;5037498;28;20452;-36
2021/11/19 07:47:30;;;;;;;27.40;19.00;;;10.50;99.90;;;;;;5035532;28;20445;-35
2021/11/19 07:49:56;;;;;;;26.70;17.50;;;10.50;99.90;;;;;;5021874;28;20444;-36
2021/11/19 07:52:22;;;;;;;24.23;17.07;;;10.70;99.90;;;;;;5012161;28;20183;-36
2021/11/19 07:54:47;;;;;;;22.53;16.93;;;10.60;99.90;;;;;;5016689;28;20211;-36
2021/11/19 07:57:13;;;;;;;24.30;16.93;;;10.60;99.90;;;;;;5041131;28;20469;-36
2021/11/19 07:59:39;;;;;;;24.63;16.87;;;10.50;99.90;;;;;;5009167;28;20190;-36
2021/11/19 08:02:05;;;;;;;20.90;15.93;;;10.50;99.90;;;;;;5014217;28;20186;-36
2021/11/19 08:04:33;;;;;;;18.97;14.53;;;10.60;99.90;;;;;;5023376;28;20426;-36
2021/11/19 08:07:00;;;;;;;20.43;15.60;;;10.80;99.90;;;;;;5028819;28;20488;-36
2021/11/19 08:09:26;;;;;;;21.93;15.93;;;10.50;99.90;;;;;;5034370;28;20440;-36
2021/11/19 08:11:52;;;;;;;18.70;14.57;;;10.50;99.90;;;;;;5024667;28;20422;-36
2021/11/19 08:14:18;;;;;;;19.60;13.70;;;10.70;99.90;;;;;;5008282;28;20441;-36
2021/11/19 08:16:48;;;;;;;17.83;14.30;;;10.60;99.90;;;;;;5011588;28;20462;-36
2021/11/19 08:19:23;;;;;;;19.10;13.83;;;10.80;99.90;;;;;;5019387;28;20214;-36
2021/11/19 08:21:48;;;;;;;17.33;13.30;;;10.80;99.90;;;;;;5011401;28;20425;-36
2021/11/19 08:24:14;;;;;;;18.20;14.33;;;10.70;99.90;;;;;;5010026;28;20825;-36
2021/11/19 08:26:44;;;;;;;17.07;13.17;;;10.60;99.90;;;;;;5009323;28;20764;-36
2021/11/19 08:29:17;;;;;;;16.30;12.43;;;10.60;99.90;;;;;;5010080;28;20422;-36
2021/11/19 08:31:43;;;;;;;17.83;13.50;;;10.70;99.90;;;;;;5025552;28;20849;-36
2021/11/19 08:34:09;;;;;;;14.40;11.67;;;10.70;99.90;;;;;;5035670;28;20428;-36
2021/11/19 08:36:35;;;;;;;17.17;13.73;;;10.70;99.90;;;;;;5033937;28;20552;-37
2021/11/19 08:39:03;;;;;;;16.47;12.17;;;10.60;99.90;;;;;;5046695;28;20847;-36
2021/11/19 08:41:29;;;;;;;17.40;12.80;;;10.60;99.90;;;;;;5019107;28;20325;-36
2021/11/19 08:43:57;;;;;;;16.60;13.27;;;10.50;99.90;;;;;;5006058;28;20541;-36
2021/11/19 08:46:30;;;;;;;15.53;12.93;;;10.70;99.90;;;;;;4995448;28;20483;-36
2021/11/19 08:48:58;;;;;;;16.93;12.13;;;10.60;99.90;;;;;;5015379;28;20508;-36
2021/11/19 08:51:27;;;;;;;18.03;13.27;;;10.80;99.90;;;;;;5014747;28;20476;-36
2021/11/19 08:53:55;;;;;;;17.87;13.30;;;10.60;99.90;;;;;;5006205;28;20426;-36
2021/11/19 08:56:21;;;;;;;16.93;12.77;;;10.60;99.90;;;;;;5015456;28;20438;-36
2021/11/19 08:58:48;;;;;;;19.10;13.73;;;10.50;99.90;;;;;;5008017;28;20449;-36
2021/11/19 09:01:16;;;;;;;18.80;14.23;;;10.50;99.90;;;;;;5010079;28;20444;-36
2021/11/19 09:03:43;;;;;;;16.73;12.70;;;10.60;99.90;;;;;;5014777;28;20436;-36
2021/11/19 09:06:12;;;;;;;20.23;14.70;;;10.60;99.90;;;;;;5025249;28;20418;-36
2021/11/19 09:08:39;;;;;;;19.00;13.70;;;10.50;99.90;;;;;;5010246;28;20434;-36
2021/11/19 09:11:08;;;;;;;18.00;13.37;;;10.70;99.90;;;;;;5009305;28;20426;-36
2021/11/19 09:13:34;;;;;;;19.80;14.97;;;10.60;99.90;;;;;;5007041;28;20496;-36
2021/11/19 09:16:04;;;;;;;20.40;14.90;;;10.60;99.90;;;;;;5007709;28;20484;-36
2021/11/19 09:18:35;;;;;;;18.47;13.90;;;10.50;99.90;;;;;;5016762;28;21015;-36
2021/11/19 09:21:18;;;;;;;16.60;12.40;;;10.60;99.90;;;;;;5019041;28;20529;-36
2021/11/19 09:24:10;;;;;;;18.80;14.10;;;10.70;99.90;;;;;;5007046;28;20693;-36
2021/11/19 09:26:43;;;;;;;17.03;13.60;;;10.60;99.90;;;;;;5019305;28;20958;-36
2021/11/19 09:29:12;;;;;;;19.77;15.40;;;10.70;99.90;;;;;;5007640;28;20444;-36
2021/11/19 09:31:40;;;;;;;20.07;14.20;;;10.70;99.90;;;;;;5011020;28;21022;-36
2021/11/19 09:34:07;;;;;;;20.77;15.40;;;10.90;99.90;;;;;;5017637;28;20516;-36
2021/11/19 09:36:34;;;;;;;19.57;14.33;;;10.80;99.90;;;;;;5012904;28;20456;-36
2021/11/19 09:39:00;;;;;;;18.60;13.50;;;10.90;99.90;;;;;;5007609;28;20437;-36
2021/11/19 09:41:48;;;;;;;19.87;14.63;;;10.80;99.90;;;;;;5015271;28;20429;-36
2021/11/19 09:44:13;;;;;;;21.67;14.90;;;10.90;99.90;;;;;;5009761;28;20565;-36
2021/11/19 09:47:17;;;;;;;19.50;14.27;;;10.80;99.90;;;;;;5026049;28;20520;-36
2021/11/19 09:50:13;;;;;;;23.80;16.17;;;10.80;99.90;;;;;;5023577;28;20544;-36
2021/11/19 09:53:09;;;;;;;21.23;15.07;;;10.70;99.90;;;;;;5022965;28;20425;-36
2021/11/19 09:55:56;;;;;;;19.07;15.60;;;10.90;99.90;;;;;;5015076;28;20425;-36
2021/11/19 09:58:41;;;;;;;24.50;16.40;;;11.00;99.90;;;;;;5010903;28;20538;-36
2021/11/19 10:01:14;;;;;;;25.27;17.60;;;10.90;99.90;;;;;;5020161;28;20413;-36
2021/11/19 10:03:51;;;;;;;23.20;16.03;;;11.10;99.90;;;;;;5017797;28;20426;-36
2021/11/19 10:06:43;;;;;;;23.30;16.77;;;10.90;99.90;;;;;;5019347;28;20413;-36
2021/11/19 10:09:20;;;;;;;25.40;18.47;;;11.10;99.90;;;;;;5011271;28;20422;-36
2021/11/19 10:12:08;;;;;;;24.80;16.70;;;11.00;99.90;;;;;;5023864;28;20430;-36
2021/11/19 10:14:48;;;;;;;30.27;20.20;;;10.90;99.90;;;;;;5010077;28;20413;-36
2021/11/19 10:17:38;;;;;;;29.20;20.80;;;11.10;99.90;;;;;;5015212;28;20473;-36
2021/11/19 10:20:33;;;;;;;31.47;22.57;;;10.90;99.90;;;;;;5021482;28;20463;-36
2021/11/19 10:23:27;;;;;;;30.67;20.53;;;10.90;99.90;;;;;;5009893;28;20421;-36
2021/11/19 10:26:04;;;;;;;29.53;20.87;;;11.20;99.90;;;;;;5018846;28;20411;-36
2021/11/19 10:28:48;;;;;;;27.57;20.03;;;10.90;99.90;;;;;;5010452;28;20445;-35
2021/11/19 10:31:22;;;;;;;32.73;22.30;;;11.30;99.90;;;;;;5010442;28;20440;-36
2021/11/19 10:34:30;;;;;;;30.83;21.57;;;11.20;99.90;;;;;;5020553;28;20931;-36
2021/11/19 10:37:17;;;;;;;30.87;21.87;;;11.10;99.90;;;;;;5026470;28;20584;-36
2021/11/19 10:40:20;;;;;;;34.63;24.60;;;11.10;99.90;;;;;;5010736;28;20418;-36
2021/11/19 10:43:04;;;;;;;38.33;23.80;;;11.10;99.90;;;;;;5027988;28;20440;-36
2021/11/19 10:45:50;;;;;;;37.47;24.53;;;11.20;99.90;;;;;;5029864;28;20463;-36
2021/11/19 10:48:49;;;;;;;36.93;23.53;;;11.10;99.90;;;;;;5025517;28;20456;-36
2021/11/19 10:51:39;;;;;;;41.80;26.30;;;11.00;99.90;;;;;;5025658;28;20428;-36
2021/11/19 10:54:35;;;;;;;38.30;24.80;;;11.00;99.90;;;;;;5012057;28;20806;-36
2021/11/19 10:57:21;;;;;;;38.67;25.30;;;11.00;99.90;;;;;;5010860;28;20476;-36
2021/11/19 11:00:24;;;;;;;37.33;24.43;;;10.90;99.90;;;;;;5010168;28;20414;-36
2021/11/19 11:02:53;;;;;;;36.70;24.53;;;11.00;99.90;;;;;;5010741;28;20442;-36
2021/11/19 11:05:35;;;;;;;32.40;22.97;;;11.10;99.90;;;;;;5015117;28;20924;-36
2021/11/19 11:08:09;;;;;;;37.00;25.20;;;11.00;99.90;;;;;;5015090;28;20476;-36
2021/11/19 11:10:42;;;;;;;37.53;26.10;;;11.00;99.90;;;;;;5013592;28;20433;-36
2021/11/19 11:13:25;;;;;;;35.90;24.40;;;11.00;99.90;;;;;;5014453;28;20547;-36
2021/11/19 11:16:15;;;;;;;35.67;23.97;;;11.00;99.90;;;;;;5010027;28;20901;-36
2021/11/19 11:19:07;;;;;;;34.90;23.30;;;11.00;99.90;;;;;;5015992;28;20470;-36
2021/11/19 11:21:36;;;;;;;36.57;25.33;;;11.00;99.90;;;;;;5019845;28;20437;-36
2021/11/19 11:24:11;;;;;;;38.73;26.60;;;11.20;99.90;;;;;;5009229;28;20693;-36
2021/11/19 11:26:42;;;;;;;39.33;25.30;;;11.10;99.90;;;;;;5014176;28;20435;-36
2021/11/19 11:29:07;;;;;;;43.33;25.40;;;11.10;99.90;;;;;;5009699;28;20541;-36
2021/11/19 11:32:11;;;;;;;37.07;25.10;;;11.10;99.90;;;;;;5009354;28;20594;-36
2021/11/19 11:34:43;;;;;;;36.77;23.37;;;11.40;99.90;;;;;;5011457;28;20248;-36
2021/11/19 11:37:17;;;;;;;36.23;25.50;;;11.10;99.90;;;;;;5011713;28;20568;-36
2021/11/19 11:39:49;;;;;;;34.70;25.43;;;11.20;99.90;;;;;;5009840;28;20785;-36
2021/11/19 11:42:27;;;;;;;37.13;25.07;;;11.30;99.90;;;;;;5011357;28;20489;-36
2021/11/19 11:44:56;;;;;;;38.30;25.20;;;11.10;99.90;;;;;;5017639;28;20785;-36
2021/11/19 11:47:47;;;;;;;35.37;24.23;;;11.00;99.90;;;;;;5025739;28;20472;-36
2021/11/19 11:50:34;;;;;;;40.60;27.07;;;11.10;99.90;;;;;;5018903;28;20418;-36
2021/11/19 11:53:06;;;;;;;38.33;25.10;;;11.10;99.90;;;;;;5011780;28;20418;-36
2021/11/19 11:55:40;;;;;;;43.03;28.10;;;11.10;99.90;;;;;;5010104;28;21001;-36
2021/11/19 11:58:28;;;;;;;41.83;28.23;;;11.00;99.90;;;;;;5017879;28;20504;-36
2021/11/19 12:01:17;;;;;;;43.00;28.47;;;11.20;99.90;;;;;;5008902;28;20430;-36
2021/11/19 12:03:54;;;;;;;45.33;28.37;;;11.10;99.90;;;;;;5015982;28;20717;-35
2021/11/19 12:06:26;;;;;;;44.20;27.50;;;11.30;99.90;;;;;;5017839;28;20801;-37
2021/11/19 12:08:55;;;;;;;45.60;28.20;;;11.20;99.90;;;;;;5009761;28;20932;-36
2021/11/19 12:11:48;;;;;;;38.73;26.37;;;11.10;99.90;;;;;;5015799;28;20445;-36
2021/11/19 12:14:22;;;;;;;41.33;26.37;;;11.10;99.90;;;;;;5007237;28;20414;-36
2021/11/19 12:16:59;;;;;;;42.70;27.67;;;11.00;99.90;;;;;;5008771;28;20460;-36
2021/11/19 12:19:47;;;;;;;40.27;27.70;;;11.10;99.90;;;;;;5022266;28;20837;-36
2021/11/19 12:22:35;;;;;;;37.83;26.67;;;11.10;99.90;;;;;;5019820;28;20421;-36
2021/11/19 12:25:31;;;;;;;34.50;26.60;;;11.10;99.90;;;;;;5009511;28;20406;-36
2021/11/19 12:28:33;;;;;;;40.17;25.20;;;11.20;99.90;;;;;;5012197;28;20425;-36
2021/11/19 12:31:17;;;;;;;37.13;24.83;;;11.00;99.90;;;;;;5007664;28;20897;-36
2021/11/19 12:33:47;;;;;;;42.87;27.10;;;11.20;99.90;;;;;;5011523;28;20446;-36
2021/11/19 12:36:20;;;;;;;38.23;24.63;;;11.10;99.90;;;;;;5023789;28;20418;-36
2021/11/19 12:38:50;;;;;;;35.73;24.80;;;11.00;99.90;;;;;;5016299;28;20728;-36
2021/11/19 12:41:56;;;;;;;32.10;23.63;;;11.20;99.90;;;;;;5012760;28;20839;-36
2021/11/19 12:44:48;;;;;;;33.77;24.67;;;11.20;99.90;;;;;;5014328;28;20504;-36
2021/11/19 12:47:36;;;;;;;40.23;26.00;;;11.20;99.90;;;;;;5027689;28;20429;-36
2021/11/19 12:50:20;;;;;;;35.80;23.77;;;11.30;99.90;;;;;;5018010;28;20436;-36
2021/11/19 12:53:18;;;;;;;38.07;26.20;;;11.40;99.90;;;;;;5014750;28;20414;-36